Time;durP1;ratioP1;P1;durP2;ratioP2;P2;SDS_P1;SDS_P2;PMS_P1;PMS_P2;Temp;Humidity;BMP_temperature;BMP_pressure;BME280_temperature;BME280_humidity;BME280_pressure;Samples;Min_cycle;Max_cycle;Signal;HPM_P1;HPM_P2
2022/05/02 00:00:11;;;;;;;;;;;13.20;91.00;;;;;;5050311;28;19909;-63
2022/05/02 00:02:38;;;;;;;;;;;13.20;91.00;;;;;;5050145;28;19908;-72
2022/05/02 00:05:04;;;;;;;;;;;13.20;91.00;;;;;;5050309;28;20382;-72
2022/05/02 00:07:30;;;;;;;;;;;13.20;90.90;;;;;;5050241;28;19966;-72
2022/05/02 00:09:56;;;;;;;;;;;13.20;91.00;;;;;;5050251;28;20248;-72
2022/05/02 00:12:21;;;;;;;;;;;13.20;91.20;;;;;;5050085;28;20363;-72
2022/05/02 00:14:47;;;;;;;;;;;13.20;90.90;;;;;;5050072;28;19913;-73
2022/05/02 00:17:12;;;;;;;;;;;13.20;90.90;;;;;;5050196;28;19913;-72
2022/05/02 00:19:38;;;;;;;;;;;13.20;90.90;;;;;;5049343;28;19920;-72
2022/05/02 00:22:04;;;;;;;;;;;13.20;90.90;;;;;;5049934;28;20355;-72
2022/05/02 00:24:29;;;;;;;;;;;13.10;91.00;;;;;;5050019;28;19919;-72
2022/05/02 00:26:56;;;;;;;;;;;13.20;91.00;;;;;;5049845;28;19971;-72
2022/05/02 00:29:22;;;;;;;;;;;13.10;91.00;;;;;;5049954;28;20295;-72
2022/05/02 00:31:47;;;;;;;;;;;13.20;91.00;;;;;;5049539;28;19925;-72
2022/05/02 00:34:13;;;;;;;;;;;13.20;91.00;;;;;;5049842;28;19956;-72
2022/05/02 00:36:39;;;;;;;;;;;13.20;91.00;;;;;;5049583;28;19920;-72
2022/05/02 00:39:05;;;;;;;;;;;13.20;91.00;;;;;;5049593;28;20247;-72
2022/05/02 00:41:30;;;;;;;;;;;13.20;91.00;;;;;;5049502;28;19919;-72
2022/05/02 00:43:56;;;;;;;;;;;13.20;91.00;;;;;;5048046;28;19913;-73
2022/05/02 00:46:22;;;;;;;;;;;13.20;91.00;;;;;;5048695;28;19917;-73
2022/05/02 00:48:48;;;;;;;;;;;13.20;91.00;;;;;;5049697;28;20252;-72
2022/05/02 00:51:14;;;;;;;;;;;13.10;91.00;;;;;;5049343;28;19909;-72
2022/05/02 00:53:40;;;;;;;;;;;13.10;91.00;;;;;;5049159;28;19952;-72
2022/05/02 00:56:06;;;;;;;;;;;13.10;91.00;;;;;;5049205;28;19971;-72
2022/05/02 00:58:33;;;;;;;;;;;13.10;91.00;;;;;;5049371;28;20045;-72
2022/05/02 01:01:00;;;;;;;;;;;13.10;90.90;;;;;;5049287;28;19924;-72
2022/05/02 01:03:25;;;;;;;;;;;13.10;90.90;;;;;;5049176;28;19935;-73
2022/05/02 01:08:36;;;;;;;;;;;13.10;91.00;;;;;;5049472;28;19962;-72
2022/05/02 01:11:01;;;;;;;;;;;13.10;91.00;;;;;;5049140;28;19917;-72
2022/05/02 01:13:47;;;;;;;;;;;13.10;90.90;;;;;;5048818;28;19913;-72
2022/05/02 01:16:13;;;;;;;;;;;13.10;90.90;;;;;;5049082;28;19908;-72
2022/05/02 01:18:38;;;;;;;;;;;13.10;90.90;;;;;;5048914;28;19913;-72
2022/05/02 01:21:08;;;;;;;;;;;13.10;90.90;;;;;;5047518;28;19917;-72
2022/05/02 01:23:33;;;;;;;;;;;13.10;90.90;;;;;;5048853;28;19920;-72
2022/05/02 01:25:59;;;;;;;;;;;13.20;90.90;;;;;;5048641;28;19916;-72
2022/05/02 01:28:24;;;;;;;;;;;13.10;90.90;;;;;;5048801;28;20006;-72
2022/05/02 01:30:50;;;;;;;;;;;13.20;90.90;;;;;;5048556;28;19925;-72
2022/05/02 01:33:15;;;;;;;;;;;13.20;90.90;;;;;;5048632;28;19958;-73
2022/05/02 01:35:41;;;;;;;;;;;13.20;90.90;;;;;;5048636;28;19913;-72
2022/05/02 01:38:06;;;;;;;;;;;13.20;90.90;;;;;;5048622;28;19924;-72
2022/05/02 01:40:32;;;;;;;;;;;13.20;90.90;;;;;;5048702;28;20011;-72
2022/05/02 01:42:57;;;;;;;;;;;13.20;90.80;;;;;;5048497;28;19912;-72
2022/05/02 01:45:23;;;;;;;;;;;13.20;90.80;;;;;;5048332;28;20363;-72
2022/05/02 01:47:48;;;;;;;;;;;13.20;90.80;;;;;;5048426;28;20390;-72
2022/05/02 01:50:14;;;;;;;;;;;13.20;90.80;;;;;;5080581;28;20299;-72
2022/05/02 01:52:40;;;;;;;;;;;13.10;90.70;;;;;;5048217;28;19967;-72
2022/05/02 01:55:05;;;;;;;;;;;13.10;90.80;;;;;;5047114;28;19913;-72
2022/05/02 01:57:31;;;;;;;;;;;13.00;90.90;;;;;;5047926;28;19917;-72
2022/05/02 01:59:57;;;;;;;;;;;13.00;90.90;;;;;;5048328;28;19960;-72
2022/05/02 02:02:22;;;;;;;;;;;13.00;90.90;;;;;;5048193;28;19958;-72
2022/05/02 02:07:36;;;;;;;;;;;13.00;91.00;;;;;;5037591;28;19980;-72
2022/05/02 02:10:02;;;;;;;;;;;13.00;91.00;;;;;;5048047;28;19909;-72
2022/05/02 02:12:27;;;;;;;;;;;13.00;90.90;;;;;;5048099;28;20007;-72
2022/05/02 02:14:53;;;;;;;;;;;13.10;90.80;;;;;;5080407;28;19966;-72
2022/05/02 02:17:18;;;;;;;;;;;13.10;90.80;;;;;;5047846;28;20011;-72
2022/05/02 02:19:44;;;;;;;;;;;13.10;90.80;;;;;;5048100;28;19913;-72
2022/05/02 02:22:16;;;;;;;;;;;13.10;90.70;;;;;;5047929;28;19975;-72
2022/05/02 02:24:48;;;;;;;;;;;13.10;90.70;;;;;;5047994;28;19939;-72
2022/05/02 02:27:14;;;;;;;;;;;13.10;90.70;;;;;;5047974;28;19924;-71
2022/05/02 02:29:40;;;;;;;;;;;13.10;90.80;;;;;;5047798;28;19909;-72
2022/05/02 02:32:05;;;;;;;;;;;13.00;90.80;;;;;;5047694;28;20411;-71
2022/05/02 02:34:31;;;;;;;;;;;13.00;90.90;;;;;;5047742;28;20337;-71
2022/05/02 02:36:57;;;;;;;;;;;12.90;90.90;;;;;;5047729;28;19908;-72
2022/05/02 02:39:22;;;;;;;;;;;12.90;90.90;;;;;;5047849;28;19928;-71
2022/05/02 02:41:48;;;;;;;;;;;12.90;91.00;;;;;;5047726;28;19909;-73
2022/05/02 02:44:13;;;;;;;;;;;12.90;90.90;;;;;;5080127;28;19920;-72
2022/05/02 02:46:39;;;;;;;;;;;12.90;90.90;;;;;;5048010;28;19917;-72
2022/05/02 02:49:04;;;;;;;;;;;12.90;90.80;;;;;;5047724;28;19956;-72
2022/05/02 02:51:30;;;;;;;;;;;12.90;90.80;;;;;;5047566;28;20386;-72
2022/05/02 02:53:55;;;;;;;;;;;12.90;90.70;;;;;;5079804;28;20111;-72
2022/05/02 02:56:22;;;;;;;;;;;12.90;90.70;;;;;;5079948;28;19966;-73
2022/05/02 02:58:47;;;;;;;;;;;12.90;90.60;;;;;;5047598;28;19916;-72
2022/05/02 03:01:13;;;;;;;;;;;12.90;90.60;;;;;;5047620;28;20127;-72
2022/05/02 03:03:39;;;;;;;;;;;12.90;90.60;;;;;;5045980;28;19994;-72
2022/05/02 03:06:05;;;;;;;;;;;12.90;90.60;;;;;;5047432;28;19924;-72
2022/05/02 03:08:36;;;;;;;;;;;12.90;90.70;;;;;;5048635;28;19971;-72
2022/05/02 03:11:02;;;;;;;;;;;12.90;90.70;;;;;;5051392;28;20003;-71
2022/05/02 03:13:28;;;;;;;;;;;12.90;90.70;;;;;;5051306;28;20363;-72
2022/05/02 03:15:54;;;;;;;;;;;12.90;90.70;;;;;;5051243;28;20001;-72
2022/05/02 03:18:20;;;;;;;;;;;13.00;90.70;;;;;;5051231;28;19937;-72
2022/05/02 03:20:45;;;;;;;;;;;13.00;90.70;;;;;;5051122;28;19955;-72
2022/05/02 03:23:11;;;;;;;;;;;12.90;90.70;;;;;;5049774;28;20373;-72
2022/05/02 03:25:37;;;;;;;;;;;12.90;90.70;;;;;;5050979;28;20015;-72
2022/05/02 03:28:02;;;;;;;;;;;12.80;90.70;;;;;;5051051;28;19944;-72
2022/05/02 03:30:28;;;;;;;;;;;12.80;90.80;;;;;;5050882;28;19917;-73
2022/05/02 03:32:53;;;;;;;;;;;12.80;90.80;;;;;;5049656;28;19924;-72
2022/05/02 03:35:19;;;;;;;;;;;12.70;90.80;;;;;;5050907;28;20367;-72
2022/05/02 03:37:44;;;;;;;;;;;12.80;90.90;;;;;;5083186;28;20275;-72
2022/05/02 03:40:10;;;;;;;;;;;12.80;90.80;;;;;;5050882;28;19920;-72
2022/05/02 03:42:36;;;;;;;;;;;12.80;90.80;;;;;;5050687;28;19939;-72
2022/05/02 03:45:01;;;;;;;;;;;12.80;90.70;;;;;;5050960;28;19909;-72
2022/05/02 03:47:27;;;;;;;;;;;12.80;90.70;;;;;;5050765;28;19923;-72
2022/05/02 03:49:52;;;;;;;;;;;12.70;90.70;;;;;;5050650;28;20034;-72
2022/05/02 03:52:18;;;;;;;;;;;12.70;90.80;;;;;;5050681;28;19913;-72
2022/05/02 03:54:43;;;;;;;;;;;12.70;90.80;;;;;;5050509;28;20015;-72
2022/05/02 03:57:09;;;;;;;;;;;12.70;90.80;;;;;;5050584;28;19913;-72
2022/05/02 03:59:35;;;;;;;;;;;12.70;90.80;;;;;;5050560;28;19923;-72
2022/05/02 04:02:00;;;;;;;;;;;12.70;90.90;;;;;;5050459;28;19919;-72
2022/05/02 04:04:26;;;;;;;;;;;12.70;90.90;;;;;;5049175;28;20378;-72
2022/05/02 04:06:51;;;;;;;;;;;12.70;90.90;;;;;;5050264;28;20287;-72
2022/05/02 04:09:17;;;;;;;;;;;12.70;90.90;;;;;;5050388;28;19959;-72
2022/05/02 04:11:43;;;;;;;;;;;12.70;90.90;;;;;;5050376;28;19920;-72
2022/05/02 04:14:08;;;;;;;;;;;12.70;90.90;;;;;;5050183;28;19909;-72
2022/05/02 04:16:34;;;;;;;;;;;12.70;90.90;;;;;;5050188;28;19924;-72
2022/05/02 04:18:59;;;;;;;;;;;12.70;90.90;;;;;;5049835;28;20431;-72
2022/05/02 04:21:25;;;;;;;;;;;12.70;90.90;;;;;;5050080;28;20347;-71
2022/05/02 04:23:50;;;;;;;;;;;12.70;90.90;;;;;;5050437;28;20256;-72
2022/05/02 04:26:16;;;;;;;;;;;12.70;90.90;;;;;;5049951;28;19917;-72
2022/05/02 04:28:41;;;;;;;;;;;12.60;90.90;;;;;;5049906;28;19913;-72
2022/05/02 04:31:07;;;;;;;;;;;12.60;90.90;;;;;;5049694;28;19929;-72
2022/05/02 04:33:32;;;;;;;;;;;12.60;90.90;;;;;;5049738;28;19913;-72
2022/05/02 04:35:58;;;;;;;;;;;12.60;90.90;;;;;;5082276;28;20058;-72
2022/05/02 04:38:26;;;;;;;;;;;12.70;90.90;;;;;;5049733;28;19913;-72
2022/05/02 04:40:51;;;;;;;;;;;12.70;90.90;;;;;;5049692;28;19913;-72
2022/05/02 04:43:17;;;;;;;;;;;12.60;90.80;;;;;;5048211;28;19919;-72
2022/05/02 04:45:42;;;;;;;;;;;12.50;90.80;;;;;;5049586;28;19947;-72
2022/05/02 04:48:09;;;;;;;;;;;12.50;90.90;;;;;;5049618;28;20393;-72
2022/05/02 04:50:34;;;;;;;;;;;12.50;90.90;;;;;;5049529;28;20004;-72
2022/05/02 04:53:00;;;;;;;;;;;12.60;90.90;;;;;;5081598;28;20004;-72
2022/05/02 04:55:25;;;;;;;;;;;12.70;90.80;;;;;;5049352;28;19912;-72
2022/05/02 04:57:51;;;;;;;;;;;12.70;90.80;;;;;;5049393;28;19930;-72
2022/05/02 05:00:17;;;;;;;;;;;12.60;90.80;;;;;;5049367;28;19917;-72
2022/05/02 05:02:42;;;;;;;;;;;12.60;90.80;;;;;;5049309;28;19949;-72
2022/05/02 05:05:08;;;;;;;;;;;12.60;90.90;;;;;;5049148;28;20311;-72
2022/05/02 05:07:35;;;;;;;;;;;12.60;90.80;;;;;;5049148;28;20260;-72
2022/05/02 05:10:01;;;;;;;;;;;12.70;90.80;;;;;;5049173;28;19919;-72
2022/05/02 05:12:33;;;;;;;;;;;12.70;90.80;;;;;;5049221;28;19921;-72
2022/05/02 05:18:05;;;;;;;;;;;12.80;90.70;;;;;;5049358;28;19963;-72
2022/05/02 05:20:40;;;;;;;;;;;12.80;90.60;;;;;;5048979;28;20283;-72
2022/05/02 05:23:08;;;;;;;;;;;12.80;90.60;;;;;;5048911;28;19916;-72
2022/05/02 05:25:36;;;;;;;;;;;12.80;90.70;;;;;;5048788;28;19939;-72
2022/05/02 05:28:21;;;;;;;;;;;12.90;90.70;;;;;;5048770;28;19952;-72
2022/05/02 05:30:48;;;;;;;;;;;12.90;90.70;;;;;;5047989;28;19928;-72
2022/05/02 05:33:14;;;;;;;;;;;12.90;90.60;;;;;;5048650;28;19935;-72
2022/05/02 05:35:58;;;;;;;;;;;13.00;90.60;;;;;;5048694;28;20403;-72
2022/05/02 05:38:28;;;;;;;;;;;13.00;90.60;;;;;;5048544;28;19908;-72
2022/05/02 05:41:07;;;;;;;;;;;13.00;90.60;;;;;;5047363;28;19909;-72
2022/05/02 05:43:36;;;;;;;;;;;13.00;90.70;;;;;;5048472;28;19910;-72
2022/05/02 05:46:12;;;;;;;;;;;13.00;90.70;;;;;;5048457;28;19939;-72
2022/05/02 05:48:56;;;;;;;;;;;13.10;90.70;;;;;;5048441;28;19948;-72
2022/05/02 05:51:22;;;;;;;;;;;13.10;90.70;;;;;;5048358;28;19909;-72
2022/05/02 05:54:06;;;;;;;;;;;13.10;90.70;;;;;;5048425;28;19909;-72
2022/05/02 05:56:51;;;;;;;;;;;13.10;90.60;;;;;;5048350;28;19935;-72
2022/05/02 05:59:29;;;;;;;;;;;13.20;90.70;;;;;;5048212;28;19909;-72
2022/05/02 06:02:05;;;;;;;;;;;13.20;90.70;;;;;;5046930;28;19962;-72
2022/05/02 06:04:32;;;;;;;;;;;13.20;90.60;;;;;;5048269;28;19920;-72
2022/05/02 06:06:58;;;;;;;;;;;13.30;90.60;;;;;;5048194;28;19913;-72
2022/05/02 06:09:26;;;;;;;;;;;13.30;90.60;;;;;;5047908;28;19956;-72
2022/05/02 06:11:55;;;;;;;;;;;13.30;90.50;;;;;;5048105;28;19942;-72
2022/05/02 06:14:21;;;;;;;;;;;13.30;90.60;;;;;;5048049;28;19967;-72
2022/05/02 06:19:33;;;;;;;;;;;13.30;90.60;;;;;;5048261;28;19958;-72
2022/05/02 06:22:00;;;;;;;;;;;13.30;90.60;;;;;;5047999;28;19920;-72
2022/05/02 06:24:27;;;;;;;;;;;13.30;90.60;;;;;;5047909;28;19917;-73
2022/05/02 06:26:54;;;;;;;;;;;13.30;90.60;;;;;;5047846;28;19957;-72
2022/05/02 06:29:20;;;;;;;;;;;13.30;90.60;;;;;;5047958;28;19955;-72
2022/05/02 06:31:51;;;;;;;;;;;13.40;90.60;;;;;;5047656;28;19920;-72
2022/05/02 06:34:20;;;;;;;;;;;13.40;90.60;;;;;;5047872;28;19909;-72
2022/05/02 06:36:52;;;;;;;;;;;13.40;90.50;;;;;;5047734;28;19916;-72
2022/05/02 06:39:24;;;;;;;;;;;13.50;90.60;;;;;;5047885;28;20362;-72
2022/05/02 06:41:49;;;;;;;;;;;13.50;90.50;;;;;;5047871;28;19915;-72
2022/05/02 06:44:44;;;;;;;;;;;13.50;90.50;;;;;;5050634;28;20286;-71
2022/05/02 06:47:29;;;;;;;;;;;13.60;90.50;;;;;;5046816;28;19913;-72
2022/05/02 06:49:56;;;;;;;;;;;13.60;90.50;;;;;;5051743;28;20350;-72
2022/05/02 06:52:30;;;;;;;;;;;13.60;90.50;;;;;;5051525;28;20329;-72
2022/05/02 06:55:01;;;;;;;;;;;13.70;90.50;;;;;;5051439;28;19916;-72
2022/05/02 06:57:47;;;;;;;;;;;13.70;90.50;;;;;;5051606;28;20263;-73
2022/05/02 07:00:17;;;;;;;;;;;13.70;90.50;;;;;;5051353;28;19909;-72
2022/05/02 07:02:51;;;;;;;;;;;13.70;90.60;;;;;;5051442;28;20379;-72
2022/05/02 07:05:27;;;;;;;;;;;13.70;90.60;;;;;;5051506;28;19961;-72
2022/05/02 07:07:59;;;;;;;;;;;13.80;90.70;;;;;;5051454;28;20003;-72
2022/05/02 07:10:26;;;;;;;;;;;13.80;90.70;;;;;;5051295;28;19917;-72
2022/05/02 07:13:03;;;;;;;;;;;13.80;90.70;;;;;;5050021;28;19955;-72
2022/05/02 07:15:41;;;;;;;;;;;13.80;90.70;;;;;;5051126;28;19963;-72
2022/05/02 07:18:12;;;;;;;;;;;13.80;90.80;;;;;;5049884;28;20431;-72
2022/05/02 07:20:58;;;;;;;;;;;13.80;90.80;;;;;;5051175;28;19909;-71
2022/05/02 07:23:27;;;;;;;;;;;13.80;90.80;;;;;;5042459;28;19915;-72
2022/05/02 07:26:12;;;;;;;;;;;13.80;90.80;;;;;;5051050;28;19913;-72
2022/05/02 07:28:45;;;;;;;;;;;13.80;90.80;;;;;;5050657;28;19967;-72
2022/05/02 07:31:17;;;;;;;;;;;13.80;90.90;;;;;;5082814;28;19928;-72
2022/05/02 07:33:44;;;;;;;;;;;13.90;90.90;;;;;;5050941;28;20327;-72
2022/05/02 07:36:13;;;;;;;;;;;14.00;90.80;;;;;;5050901;28;20290;-72
2022/05/02 07:38:40;;;;;;;;;;;14.10;90.70;;;;;;5050854;28;20378;-72
2022/05/02 07:41:22;;;;;;;;;;;14.20;90.70;;;;;;5083021;28;20321;-72
2022/05/02 07:43:54;;;;;;;;;;;14.30;90.70;;;;;;5050811;28;19916;-72
2022/05/02 07:46:23;;;;;;;;;;;14.30;90.70;;;;;;5050680;28;19924;-73
2022/05/02 07:48:50;;;;;;;;;;;14.40;90.70;;;;;;5050587;28;19913;-72
2022/05/02 07:51:16;;;;;;;;;;;14.50;90.70;;;;;;5050456;28;19918;-72
2022/05/02 07:53:43;;;;;;;;;;;14.50;90.80;;;;;;5049858;28;19909;-72
2022/05/02 07:56:09;;;;;;;;;;;14.60;90.80;;;;;;5050470;28;19967;-72
2022/05/02 07:58:36;;;;;;;;;;;14.70;90.80;;;;;;5050194;28;19924;-72
2022/05/02 08:01:02;;;;;;;;;;;14.80;90.80;;;;;;5050360;28;19913;-72
2022/05/02 08:03:28;;;;;;;;;;;14.90;90.60;;;;;;5065575;28;19920;-72
2022/05/02 08:05:55;;;;;;;;;;;15.00;90.60;;;;;;5050175;28;20070;-72
2022/05/02 08:08:31;;;;;;;;;;;15.10;90.60;;;;;;5049965;28;19996;-72
2022/05/02 08:11:08;;;;;;;;;;;15.20;90.60;;;;;;5050236;28;19971;-72
2022/05/02 08:13:38;;;;;;;;;;;15.30;90.50;;;;;;5050059;28;19909;-72
2022/05/02 08:16:06;;;;;;;;;;;15.30;90.50;;;;;;5050069;28;20228;-73
2022/05/02 08:18:50;;;;;;;;;;;15.30;90.40;;;;;;5050210;28;19929;-72
2022/05/02 08:21:20;;;;;;;;;;;15.30;90.50;;;;;;5050030;28;19932;-72
2022/05/02 08:27:19;;;;;;;;;;;15.40;90.50;;;;;;5049575;28;19920;-72
2022/05/02 08:29:47;;;;;;;;;;;15.40;90.50;;;;;;5044949;28;19912;-72
2022/05/02 08:32:23;;;;;;;;;;;15.30;90.50;;;;;;5049463;28;20299;-72
2022/05/02 08:35:07;;;;;;;;;;;15.30;90.60;;;;;;5048387;28;19943;-72
2022/05/02 08:37:45;;;;;;;;;;;15.40;90.70;;;;;;5049294;28;19932;-72
2022/05/02 08:40:13;;;;;;;;;;;15.50;90.70;;;;;;5049487;28;20393;-72
2022/05/02 08:42:58;;;;;;;;;;;15.60;90.70;;;;;;5049531;28;19919;-72
2022/05/02 08:45:37;;;;;;;;;;;15.70;90.60;;;;;;5049452;28;19939;-72
2022/05/02 08:48:15;;;;;;;;;;;15.80;90.60;;;;;;5049405;28;19908;-72
2022/05/02 08:50:52;;;;;;;;;;;15.90;90.50;;;;;;5049287;28;20026;-72
2022/05/02 08:53:37;;;;;;;;;;;16.10;90.50;;;;;;5049020;28;20316;-72
2022/05/02 08:56:17;;;;;;;;;;;16.20;90.50;;;;;;5049591;28;20280;-71
2022/05/02 08:58:43;;;;;;;;;;;16.20;90.40;;;;;;5048824;28;19917;-72
2022/05/02 09:01:17;;;;;;;;;;;16.40;90.40;;;;;;5048871;28;19931;-74
2022/05/02 09:03:46;;;;;;;;;;;16.40;90.40;;;;;;5049004;28;19925;-73
2022/05/02 09:06:30;;;;;;;;;;;16.50;90.40;;;;;;5048025;28;20019;-73
2022/05/02 09:09:14;;;;;;;;;;;16.60;90.40;;;;;;5047293;28;19913;-74
2022/05/02 09:11:43;;;;;;;;;;;16.60;90.40;;;;;;5049611;28;20397;-73
2022/05/02 09:14:27;;;;;;;;;;;16.80;90.60;;;;;;5049461;28;20000;-74
2022/05/02 09:17:12;;;;;;;;;;;16.80;90.50;;;;;;5049662;28;20255;-74
2022/05/02 09:19:37;;;;;;;;;;;17.00;90.50;;;;;;5048293;28;20404;-73
2022/05/02 09:22:08;;;;;;;;;;;17.10;90.50;;;;;;5068809;28;19912;-73
2022/05/02 09:24:43;;;;;;;;;;;17.30;90.60;;;;;;5069297;28;20317;-71
2022/05/02 09:27:08;;;;;;;;;;;17.40;90.60;;;;;;5069128;28;19913;-74
2022/05/02 09:29:54;;;;;;;;;;;17.50;90.60;;;;;;5067913;28;20689;-74
2022/05/02 09:32:39;;;;;;;;;;;17.60;90.60;;;;;;5068279;28;20428;-74
2022/05/02 09:35:10;;;;;;;;;;;17.70;90.70;;;;;;5069222;28;20363;-74
2022/05/02 09:37:36;;;;;;;;;;;17.80;90.60;;;;;;5069588;28;20273;-72
2022/05/02 09:40:02;;;;;;;;;;;17.80;90.60;;;;;;5068672;28;20003;-73
2022/05/02 09:42:40;;;;;;;;;;;17.90;90.70;;;;;;5068183;28;20016;-73
2022/05/02 09:50:56;;;;;;;;;;;18.10;90.50;;;;;;5062601;28;20146;-73
2022/05/02 09:53:35;;;;;;;;;;;18.20;90.40;;;;;;5065133;28;19942;-73
2022/05/02 09:58:54;;;;;;;;;;;18.20;90.40;;;;;;5058746;28;20028;-72
2022/05/02 10:01:26;;;;;;;;;;;18.10;90.40;;;;;;5046603;28;19962;-72
2022/05/02 10:04:01;;;;;;;;;;;17.90;90.40;;;;;;5046701;28;19909;-72
2022/05/02 10:06:41;;;;;;;;;;;17.80;90.60;;;;;;5048031;28;19916;-73
2022/05/02 10:09:17;;;;;;;;;;;17.70;90.70;;;;;;5048771;28;19927;-73
2022/05/02 10:11:52;;;;;;;;;;;17.70;90.70;;;;;;5046599;28;19925;-72
2022/05/02 10:14:28;;;;;;;;;;;17.80;90.60;;;;;;5047793;28;19921;-72
2022/05/02 10:17:00;;;;;;;;;;;17.70;90.50;;;;;;5047657;28;20268;-72
2022/05/02 10:19:41;;;;;;;;;;;17.60;90.50;;;;;;5047502;28;20260;-72
2022/05/02 10:22:09;;;;;;;;;;;17.50;90.50;;;;;;5048139;28;20632;-72
2022/05/02 10:24:44;;;;;;;;;;;17.50;90.50;;;;;;5048426;28;19912;-72
2022/05/02 10:27:26;;;;;;;;;;;17.40;90.40;;;;;;5047435;28;19913;-73
2022/05/02 10:30:01;;;;;;;;;;;17.20;90.30;;;;;;5048060;28;19912;-74
2022/05/02 10:32:56;;;;;;;;;;;17.00;90.50;;;;;;5047487;28;19971;-72
2022/05/02 10:35:26;;;;;;;;;;;17.00;90.60;;;;;;5047383;28;19989;-72
2022/05/02 10:37:58;;;;;;;;;;;17.00;90.70;;;;;;5046890;28;20329;-72
2022/05/02 10:40:33;;;;;;;;;;;17.10;90.80;;;;;;5080380;28;19955;-72
2022/05/02 10:43:01;;;;;;;;;;;17.20;90.70;;;;;;5048037;28;19919;-71
2022/05/02 10:45:27;;;;;;;;;;;17.40;90.60;;;;;;5047992;28;20015;-72
2022/05/02 10:47:54;;;;;;;;;;;17.40;90.50;;;;;;5046008;28;20307;-73
2022/05/02 10:50:20;;;;;;;;;;;17.40;90.50;;;;;;5047560;28;20012;-72
2022/05/02 10:52:46;;;;;;;;;;;17.40;90.50;;;;;;5047565;28;19980;-72
2022/05/02 10:55:30;;;;;;;;;;;17.40;90.50;;;;;;5048052;28;20035;-73
2022/05/02 10:58:00;;;;;;;;;;;17.50;90.60;;;;;;5055264;28;19928;-73
2022/05/02 11:00:26;;;;;;;;;;;17.60;90.60;;;;;;5058335;28;19919;-71
2022/05/02 11:03:07;;;;;;;;;;;17.70;90.50;;;;;;5053353;28;20249;-73
2022/05/02 11:05:43;;;;;;;;;;;17.90;90.40;;;;;;5080064;28;19917;-72
2022/05/02 11:08:18;;;;;;;;;;;17.90;90.30;;;;;;5058135;28;19908;-73
2022/05/02 11:10:50;;;;;;;;;;;17.90;90.30;;;;;;5055757;28;19912;-72
2022/05/02 11:13:34;;;;;;;;;;;17.90;90.30;;;;;;5056056;28;19908;-73
2022/05/02 11:16:04;;;;;;;;;;;17.90;90.30;;;;;;5080813;28;20428;-72
2022/05/02 11:21:24;;;;;;;;;;;18.10;90.40;;;;;;5061996;28;19915;-71
2022/05/02 11:24:09;;;;;;;;;;;18.20;90.40;;;;;;5067809;28;19995;-72
2022/05/02 11:26:37;;;;;;;;;;;18.30;90.30;;;;;;5067696;28;19926;-74
2022/05/02 11:29:18;;;;;;;;;;;18.30;90.20;;;;;;5068111;28;19966;-72
2022/05/02 11:32:09;;;;;;;;;;;18.30;90.40;;;;;;5070991;28;19920;-72
2022/05/02 11:34:47;;;;;;;;;;;18.40;90.30;;;;;;5070139;28;19935;-73
2022/05/02 11:37:20;;;;;;;;;;;18.60;90.30;;;;;;5070988;28;19908;-73
2022/05/02 11:39:52;;;;;;;;;;;18.70;90.20;;;;;;5071010;28;19909;-72
2022/05/02 11:42:21;;;;;;;;;;;18.80;90.20;;;;;;5070958;28;19909;-69
2022/05/02 11:44:50;;;;;;;;;;;18.70;90.10;;;;;;5070867;28;19912;-73
2022/05/02 11:47:22;;;;;;;;;;;18.60;90.20;;;;;;5071066;28;19920;-71
2022/05/02 11:49:52;;;;;;;;;;;18.60;90.40;;;;;;5071271;28;19912;-72
2022/05/02 11:52:28;;;;;;;;;;;18.70;90.40;;;;;;5070546;28;20007;-72
2022/05/02 11:54:56;;;;;;;;;;;18.80;90.40;;;;;;5070775;28;19954;-71
2022/05/02 11:57:28;;;;;;;;;;;19.00;90.30;;;;;;5069294;28;19908;-72
2022/05/02 11:59:58;;;;;;;;;;;19.10;90.40;;;;;;5070649;28;19995;-73
2022/05/02 12:02:36;;;;;;;;;;;19.20;90.20;;;;;;5069243;28;19913;-73
2022/05/02 12:05:10;;;;;;;;;;;19.30;90.20;;;;;;5070413;28;19920;-73
2022/05/02 12:07:36;;;;;;;;;;;19.20;90.10;;;;;;5070232;28;19939;-72
2022/05/02 12:10:06;;;;;;;;;;;19.10;90.20;;;;;;5070353;28;20358;-73
2022/05/02 12:12:32;;;;;;;;;;;19.20;90.50;;;;;;5070265;28;20353;-72
2022/05/02 12:15:02;;;;;;;;;;;19.30;90.40;;;;;;5070073;28;19915;-73
2022/05/02 12:17:28;;;;;;;;;;;19.60;90.50;;;;;;5066229;28;19920;-73
2022/05/02 12:19:53;;;;;;;;;;;19.90;90.50;;;;;;5057078;28;19940;-73
2022/05/02 12:22:29;;;;;;;;;;;20.30;90.40;;;;;;5062406;28;20302;-72
2022/05/02 12:25:03;;;;;;;;;;;20.60;90.10;;;;;;5065023;28;20468;-72
2022/05/02 12:27:31;;;;;;;;;;;20.70;90.00;;;;;;5062156;28;19997;-73
2022/05/02 12:30:00;;;;;;;;;;;20.90;90.00;;;;;;5070489;28;19915;-73
2022/05/02 12:32:30;;;;;;;;;;;21.00;89.40;;;;;;5070014;28;20092;-73
2022/05/02 12:34:56;;;;;;;;;;;21.00;89.40;;;;;;5068666;28;20277;-72
2022/05/02 12:37:38;;;;;;;;;;;21.00;89.50;;;;;;5085500;28;19991;-74
2022/05/02 12:40:11;;;;;;;;;;;21.10;89.60;;;;;;5069936;28;19913;-71
2022/05/02 12:42:49;;;;;;;;;;;21.30;89.40;;;;;;5070114;28;19947;-71
2022/05/02 12:45:22;;;;;;;;;;;21.40;89.30;;;;;;5068086;28;20012;-72
2022/05/02 12:47:48;;;;;;;;;;;21.40;89.10;;;;;;5068374;28;19995;-74
2022/05/02 12:50:20;;;;;;;;;;;21.50;89.20;;;;;;5068683;28;20001;-73
2022/05/02 12:52:56;;;;;;;;;;;21.50;89.20;;;;;;5068400;28;20129;-71
2022/05/02 12:55:33;;;;;;;;;;;21.70;89.20;;;;;;5067929;28;19912;-72
2022/05/02 13:00:58;;;;;;;;;;;22.00;88.80;;;;;;5069495;28;19962;-73
2022/05/02 13:03:27;;;;;;;;;;;22.00;88.30;;;;;;5069469;28;20403;-72
2022/05/02 13:06:05;;;;;;;;;;;22.00;88.50;;;;;;5068227;28;20447;-72
2022/05/02 13:08:45;;;;;;;;;;;22.10;88.50;;;;;;5067949;28;20721;-72
2022/05/02 13:11:20;;;;;;;;;;;22.20;89.10;;;;;;5068783;28;19909;-72
2022/05/02 13:13:56;;;;;;;;;;;22.20;89.20;;;;;;5069121;28;19952;-71
2022/05/02 13:16:31;;;;;;;;;;;22.30;88.20;;;;;;5069153;28;19926;-71
2022/05/02 13:19:00;;;;;;;;;;;22.20;88.10;;;;;;5069160;28;20367;-71
2022/05/02 13:21:26;;;;;;;;;;;22.30;88.00;;;;;;5068769;28;20003;-72
2022/05/02 13:23:56;;;;;;;;;;;22.40;87.20;;;;;;5068834;28;19905;-70
2022/05/02 13:26:26;;;;;;;;;;;22.50;86.50;;;;;;5068453;28;19912;-70
2022/05/02 13:29:09;;;;;;;;;;;22.60;86.30;;;;;;5064830;28;19913;-72
2022/05/02 13:31:47;;;;;;;;;;;22.70;86.20;;;;;;5059488;28;20359;-72
2022/05/02 13:34:39;;;;;;;;;;;22.80;86.10;;;;;;5056472;28;19968;-72
2022/05/02 13:37:07;;;;;;;;;;;22.70;84.90;;;;;;5062618;28;19962;-71
2022/05/02 13:39:53;;;;;;;;;;;22.50;85.00;;;;;;5053930;28;20275;-71
2022/05/02 13:42:39;;;;;;;;;;;22.30;85.30;;;;;;5082583;28;19920;-71
2022/05/02 13:45:10;;;;;;;;;;;22.00;86.00;;;;;;5062298;28;20359;-71
2022/05/02 13:47:43;;;;;;;;;;;21.80;86.60;;;;;;5058327;28;19936;-71
2022/05/02 13:50:12;;;;;;;;;;;21.80;86.70;;;;;;5062932;28;19909;-72
2022/05/02 13:52:46;;;;;;;;;;;21.90;86.20;;;;;;5052123;28;19919;-71
2022/05/02 13:55:19;;;;;;;;;;;21.90;86.60;;;;;;5059157;28;19913;-72
2022/05/02 13:57:53;;;;;;;;;;;22.00;86.10;;;;;;5056721;28;19913;-71
2022/05/02 14:03:19;;;;;;;;;;;21.90;84.90;;;;;;5058912;28;19908;-70
2022/05/02 14:08:36;;;;;;;;;;;21.70;84.60;;;;;;5048126;28;19920;-73
2022/05/02 14:11:02;;;;;;;;;;;21.60;84.30;;;;;;5048369;28;19909;-74
2022/05/02 14:13:28;;;;;;;;;;;21.60;84.40;;;;;;5048030;28;19994;-74
2022/05/02 14:15:54;;;;;;;;;;;21.60;84.30;;;;;;5047977;28;19966;-73
2022/05/02 14:18:22;;;;;;;;;;;21.60;84.30;;;;;;5048086;28;19909;-72
2022/05/02 14:20:58;;;;;;;;;;;21.50;84.30;;;;;;5047732;28;19913;-72
2022/05/02 14:23:25;;;;;;;;;;;21.50;84.40;;;;;;5047506;28;19954;-61
2022/05/02 14:25:52;;;;;;;;;;;21.40;84.30;;;;;;5047239;28;20006;-74
2022/05/02 14:28:18;;;;;;;;;;;21.40;84.30;;;;;;5047672;28;20236;-72
2022/05/02 14:30:45;;;;;;;;;;;21.30;84.20;;;;;;5046172;28;19978;-75
2022/05/02 14:33:11;;;;;;;;;;;21.30;84.20;;;;;;5046880;28;19920;-72
2022/05/02 14:35:40;;;;;;;;;;;21.20;84.10;;;;;;5057854;28;20375;-72
2022/05/02 14:38:07;;;;;;;;;;;21.10;84.00;;;;;;5067313;28;19974;-72
2022/05/02 14:40:33;;;;;;;;;;;21.00;84.10;;;;;;5066246;28;20026;-74
2022/05/02 14:42:59;;;;;;;;;;;20.80;84.10;;;;;;5068025;28;19931;-73
2022/05/02 14:45:25;;;;;;;;;;;20.60;83.90;;;;;;5062441;28;19991;-74
2022/05/02 14:47:51;;;;;;;;;;;20.40;84.20;;;;;;5058576;28;19956;-75
2022/05/02 14:50:20;;;;;;;;;;;20.30;84.60;;;;;;5059078;28;20320;-72
2022/05/02 14:52:47;;;;;;;;;;;20.20;84.60;;;;;;5092026;28;20455;-75
2022/05/02 14:55:14;;;;;;;;;;;20.20;84.60;;;;;;5064658;28;19908;-72
2022/05/02 14:57:46;;;;;;;;;;;20.10;84.50;;;;;;5057059;28;20305;-74
2022/05/02 15:00:12;;;;;;;;;;;20.00;84.60;;;;;;5059363;28;19912;-74
2022/05/02 15:02:39;;;;;;;;;;;19.90;84.70;;;;;;5059292;28;19920;-74
2022/05/02 15:05:14;;;;;;;;;;;19.90;84.60;;;;;;5055691;28;19932;-75
2022/05/02 15:07:58;;;;;;;;;;;19.90;84.40;;;;;;5058290;28;19917;-74